Terminal Aerodrome Forecast
Issued by NWS

Home | Current Version | Previous Version | Graphics & Text | Print | Product List | Glossary On
Versions: 1 2 3 4 5 6 7 8 9 10 11 12 13 14 15 16 17
551
FTUS43 KMPX 122321
TAFRWF
TAF
KRWF 122321Z 1300/1324 23009KT P6SM SCT100
     FM130700 25008KT P6SM BKN200
     FM131000 30012G18KT P6SM OVC070
     FM131200 31014G24KT P6SM OVC020
     FM131500 32020G27KT P6SM OVC015=

USA.gov is the U.S. government's official web portal to all federal, state and local government web resources and services.